Time;durP1;ratioP1;P1;durP2;ratioP2;P2;SDS_P1;SDS_P2;PMS_P1;PMS_P2;Temp;Humidity;BMP_temperature;BMP_pressure;BME280_temperature;BME280_humidity;BME280_pressure;Samples;Min_cycle;Max_cycle;Signal;HPM_P1;HPM_P2
2022/10/09 00:00:37;;;;;;;;;;;;;;;7.94;100.00;102484.91;5033014;28;20308;-71
2022/10/09 00:03:02;;;;;;;;;;;;;;;7.94;100.00;102485.81;5032534;28;21317;-71
2022/10/09 00:05:28;;;;;;;;;;;;;;;7.91;100.00;102485.84;5012311;28;19936;-71
2022/10/09 00:07:53;;;;;;;;;;;;;;;7.87;100.00;102481.47;5032698;28;19940;-71
2022/10/09 00:10:19;;;;;;;;;;;;;;;7.83;100.00;102485.88;5032867;28;19924;-71
2022/10/09 00:12:44;;;;;;;;;;;;;;;7.81;100.00;102486.78;5027027;28;19968;-71
2022/10/09 00:15:10;;;;;;;;;;;;;;;7.77;100.00;102479.78;5030881;28;20074;-71
2022/10/09 00:17:35;;;;;;;;;;;;;;;7.73;100.00;102485.09;5030172;28;19932;-71
2022/10/09 00:20:00;;;;;;;;;;;;;;;7.70;100.00;102490.38;5011443;28;19925;-71
2022/10/09 00:22:26;;;;;;;;;;;;;;;7.70;100.00;102487.75;5022625;28;19964;-71
2022/10/09 00:24:51;;;;;;;;;;;;;;;7.68;100.00;102486.00;5031096;28;20015;-71
2022/10/09 00:27:17;;;;;;;;;;;;;;;7.65;100.00;102492.19;5031080;28;20412;-71
2022/10/09 00:29:42;;;;;;;;;;;;;;;7.64;100.00;102495.69;5025958;28;19932;-71
2022/10/09 00:32:07;;;;;;;;;;;;;;;7.61;100.00;102488.69;5025732;28;19936;-71
2022/10/09 00:34:33;;;;;;;;;;;;;;;7.59;100.00;102486.94;5030578;28;20427;-71
2022/10/09 00:36:58;;;;;;;;;;;;;;;7.58;100.00;102487.84;5038384;28;19935;-72
2022/10/09 00:39:24;;;;;;;;;;;;;;;7.57;100.00;102491.34;5030638;28;19933;-72
2022/10/09 00:41:49;;;;;;;;;;;;;;;7.56;100.00;102482.56;5031026;28;19928;-72
2022/10/09 00:44:33;;;;;;;;;;;;;;;7.57;100.00;102494.00;5030842;28;19928;-72
2022/10/09 00:46:58;;;;;;;;;;;;;;;7.55;100.00;102491.34;5031173;28;20015;-72
2022/10/09 00:49:28;;;;;;;;;;;;;;;7.54;100.00;102488.72;5030802;28;19928;-72
2022/10/09 00:51:53;;;;;;;;;;;;;;;7.53;100.00;102502.78;5026126;28;19925;-72
2022/10/09 00:54:20;;;;;;;;;;;;;;;7.52;100.00;102487.88;5029427;28;20331;-72
2022/10/09 00:56:45;;;;;;;;;;;;;;;7.49;100.00;102496.66;5026320;28;20019;-72
2022/10/09 00:59:11;;;;;;;;;;;;;;;7.45;100.00;102495.81;5011058;28;19924;-72
2022/10/09 01:01:37;;;;;;;;;;;;;;;7.43;100.00;102497.59;5000789;28;20278;-72
2022/10/09 01:04:02;;;;;;;;;;;;;;;7.41;100.00;102498.47;5026589;28;19925;-72
2022/10/09 01:06:48;;;;;;;;;;;;;;;7.38;100.00;102494.09;5039029;28;19936;-72
2022/10/09 01:09:15;;;;;;;;;;;;;;;7.35;100.00;102502.00;5030882;28;20354;-71
2022/10/09 01:11:47;;;;;;;;;;;;;;;7.31;100.00;102492.38;5022516;28;19929;-72
2022/10/09 01:14:16;;;;;;;;;;;;;;;7.28;100.00;102488.00;5025962;28;19935;-72
2022/10/09 01:16:59;;;;;;;;;;;;;;;7.29;100.00;102496.75;5048561;28;19943;-70
2022/10/09 01:19:39;;;;;;;;;;;;;;;7.28;100.00;102487.09;5027060;28;20591;-69
2022/10/09 01:22:10;;;;;;;;;;;;;;;7.27;100.00;102490.63;5048292;28;20350;-71
2022/10/09 01:24:37;;;;;;;;;;;;;;;7.25;100.00;102487.13;5031468;28;20480;-72
2022/10/09 01:27:04;;;;;;;;;;;;;;;7.22;100.00;102488.03;5031224;28;19948;-71
2022/10/09 01:29:31;;;;;;;;;;;;;;;7.19;100.00;102483.66;5017152;28;20375;-71
2022/10/09 01:31:57;;;;;;;;;;;;;;;7.16;100.00;102491.56;5030609;28;19929;-72
2022/10/09 01:34:22;;;;;;;;;;;;;;;7.14;100.00;102490.69;5048085;28;20337;-72
2022/10/09 01:36:47;;;;;;;;;;;;;;;7.11;100.00;102485.44;5026341;28;19940;-72
2022/10/09 01:39:14;;;;;;;;;;;;;;;7.10;100.00;102486.34;5031119;28;19928;-72
2022/10/09 01:41:40;;;;;;;;;;;;;;;7.07;100.00;102478.44;5027116;28;19929;-72
2022/10/09 01:44:25;;;;;;;;;;;;;;;7.07;100.00;102484.59;5017991;28;19947;-72
2022/10/09 01:46:50;;;;;;;;;;;;;;;7.09;100.00;102483.69;5027479;28;20058;-72
2022/10/09 01:49:16;;;;;;;;;;;;;;;7.08;100.00;102474.91;5029467;28;19996;-72
2022/10/09 01:51:44;;;;;;;;;;;;;;;7.05;100.00;102472.31;5030720;28;19932;-72
2022/10/09 01:54:10;;;;;;;;;;;;;;;7.05;100.00;102480.22;5047349;28;20856;-72
2022/10/09 01:56:35;;;;;;;;;;;;;;;7.04;100.00;102473.19;5025190;28;19929;-72
2022/10/09 01:59:02;;;;;;;;;;;;;;;7.00;100.00;102468.81;5051354;28;20084;-72
2022/10/09 02:01:29;;;;;;;;;;;;;;;7.01;100.00;102467.91;5033025;28;19925;-72
2022/10/09 02:03:54;;;;;;;;;;;;;;;7.01;100.00;102465.28;5035047;28;20178;-71
2022/10/09 02:06:20;;;;;;;;;;;;;;;6.99;100.00;102465.31;5053179;28;20061;-72
2022/10/09 02:08:48;;;;;;;;;;;;;;;6.96;100.00;102460.03;5035242;28;19983;-72
2022/10/09 02:11:14;;;;;;;;;;;;;;;6.93;100.00;102460.94;5051895;28;19929;-72
2022/10/09 02:13:39;;;;;;;;;;;;;;;6.94;100.00;102459.19;5050959;28;20111;-71
2022/10/09 02:16:17;;;;;;;;;;;;;;;6.96;100.00;102454.78;5033579;28;19929;-72
2022/10/09 02:18:46;;;;;;;;;;;;;;;6.96;100.00;102459.19;5033739;28;19936;-72
2022/10/09 02:21:13;;;;;;;;;;;;;;;6.97;100.00;102461.78;5051044;28;19982;-72
2022/10/09 02:23:39;;;;;;;;;;;;;;;6.95;100.00;102457.41;5028729;28;19932;-72
2022/10/09 02:26:04;;;;;;;;;;;;;;;6.92;100.00;102459.19;5008752;28;19921;-72
2022/10/09 02:28:29;;;;;;;;;;;;;;;6.93;100.00;102450.41;5028651;28;19929;-72
2022/10/09 02:31:18;;;;;;;;;;;;;;;6.95;100.00;102457.41;5031498;28;21364;-72
2022/10/09 02:33:44;;;;;;;;;;;;;;;6.96;100.00;102448.66;5029656;28;19926;-72
2022/10/09 02:36:09;;;;;;;;;;;;;;;6.95;100.00;102449.50;5028772;28;20389;-72
2022/10/09 02:38:35;;;;;;;;;;;;;;;6.91;100.00;102451.28;5035176;28;20391;-72
2022/10/09 02:41:00;;;;;;;;;;;;;;;6.91;100.00;102452.16;5033537;28;19928;-71
2022/10/09 02:43:25;;;;;;;;;;;;;;;6.92;100.00;102445.16;5033171;28;19944;-71
2022/10/09 02:45:51;;;;;;;;;;;;;;;6.92;100.00;102446.03;5028452;28;19931;-71
2022/10/09 02:48:16;;;;;;;;;;;;;;;6.92;100.00;102443.38;5028476;28;19998;-71
2022/10/09 02:50:42;;;;;;;;;;;;;;;6.91;100.00;102449.53;5029515;28;20043;-72
2022/10/09 02:53:07;;;;;;;;;;;;;;;6.93;100.00;102444.28;5037610;28;19924;-72
2022/10/09 02:55:32;;;;;;;;;;;;;;;6.92;100.00;102447.78;5029481;28;19925;-71
2022/10/09 02:57:58;;;;;;;;;;;;;;;6.91;100.00;102446.91;5028778;28;20029;-72
2022/10/09 03:00:23;;;;;;;;;;;;;;;6.92;100.00;102442.53;5028776;28;19929;-71
2022/10/09 03:02:48;;;;;;;;;;;;;;;6.89;100.00;102445.16;5019549;28;20039;-72
2022/10/09 03:05:14;;;;;;;;;;;;;;;6.87;100.00;102444.28;5033820;28;20384;-71
2022/10/09 03:07:39;;;;;;;;;;;;;;;6.83;100.00;102443.44;5033373;28;19936;-72
2022/10/09 03:10:05;;;;;;;;;;;;;;;6.80;100.00;102438.16;5019169;28;19944;-72
2022/10/09 03:12:30;;;;;;;;;;;;;;;6.78;100.00;102451.38;5033277;28;20048;-72
2022/10/09 03:14:55;;;;;;;;;;;;;;;6.76;100.00;102447.84;5032146;28;20405;-72
2022/10/09 03:17:21;;;;;;;;;;;;;;;6.73;100.00;102450.50;5027500;28;19933;-72
2022/10/09 03:19:46;;;;;;;;;;;;;;;6.71;100.00;102446.13;5033031;28;19933;-72
2022/10/09 03:22:11;;;;;;;;;;;;;;;6.70;100.00;102449.63;5033003;28;19929;-72
2022/10/09 03:24:37;;;;;;;;;;;;;;;6.72;100.00;102445.22;5032874;28;19939;-72
2022/10/09 03:27:02;;;;;;;;;;;;;;;6.73;100.00;102444.34;5015072;28;19940;-72
2022/10/09 03:29:29;;;;;;;;;;;;;;;6.72;100.00;102442.59;5032586;28;20378;-72
2022/10/09 03:31:54;;;;;;;;;;;;;;;6.72;100.00;102445.22;5033098;28;19928;-71
2022/10/09 03:34:20;;;;;;;;;;;;;;;6.75;100.00;102451.34;5027448;28;19955;-71
2022/10/09 03:36:45;;;;;;;;;;;;;;;6.77;100.00;102443.47;5010904;28;20348;-72
2022/10/09 03:39:10;;;;;;;;;;;;;;;6.76;100.00;102449.63;5033677;28;21132;-72
2022/10/09 03:41:36;;;;;;;;;;;;;;;6.73;100.00;102447.88;5032232;28;19932;-72
2022/10/09 03:44:04;;;;;;;;;;;;;;;6.73;100.00;102439.97;5031229;28;20059;-72
2022/10/09 03:46:30;;;;;;;;;;;;;;;6.76;100.00;102442.56;5031144;28;19928;-72
2022/10/09 03:48:56;;;;;;;;;;;;;;;6.77;100.00;102443.47;5032903;28;19979;-72
2022/10/09 03:51:21;;;;;;;;;;;;;;;6.75;100.00;102432.06;5027540;28;20337;-72
2022/10/09 03:53:47;;;;;;;;;;;;;;;6.77;100.00;102431.16;5031998;28;19987;-72
2022/10/09 03:56:12;;;;;;;;;;;;;;;6.75;100.00;102434.69;5034417;28;20031;-72
2022/10/09 03:58:37;;;;;;;;;;;;;;;6.73;100.00;102442.59;5031296;28;20053;-72
2022/10/09 04:01:03;;;;;;;;;;;;;;;6.71;100.00;102443.47;5033647;28;19972;-72
2022/10/09 04:03:28;;;;;;;;;;;;;;;6.68;100.00;102435.56;5031986;28;19964;-72
2022/10/09 04:05:54;;;;;;;;;;;;;;;6.64;100.00;102440.88;5028190;28;20426;-72
2022/10/09 04:08:19;;;;;;;;;;;;;;;6.62;100.00;102444.38;5049554;28;19928;-72
2022/10/09 04:10:45;;;;;;;;;;;;;;;6.58;100.00;102445.28;5032205;28;19983;-72
2022/10/09 04:13:10;;;;;;;;;;;;;;;6.54;100.00;102447.03;5026675;28;20194;-72
2022/10/09 04:15:36;;;;;;;;;;;;;;;6.52;100.00;102443.53;5027250;28;19913;-72
2022/10/09 04:18:02;;;;;;;;;;;;;;;6.44;100.00;102446.19;5030558;28;19927;-71
2022/10/09 04:20:27;;;;;;;;;;;;;;;6.38;100.00;102441.81;5048733;28;19932;-71
2022/10/09 04:22:53;;;;;;;;;;;;;;;6.35;100.00;102438.31;5030724;28;19940;-71
2022/10/09 04:25:18;;;;;;;;;;;;;;;6.30;100.00;102440.06;5031638;28;20306;-72
2022/10/09 04:27:43;;;;;;;;;;;;;;;6.24;100.00;102440.97;5025922;28;20292;-71
2022/10/09 04:30:09;;;;;;;;;;;;;;;6.21;100.00;102446.25;5031592;28;19963;-72
2022/10/09 04:32:34;;;;;;;;;;;;;;;6.19;100.00;102446.25;5030565;28;20431;-72
2022/10/09 04:35:00;;;;;;;;;;;;;;;6.17;100.00;102434.84;5031913;28;19940;-72
2022/10/09 04:37:25;;;;;;;;;;;;;;;6.16;100.00;102440.09;5031635;28;19933;-72
2022/10/09 04:39:53;;;;;;;;;;;;;;;6.17;100.00;102436.59;5029862;28;20078;-72
2022/10/09 04:42:18;;;;;;;;;;;;;;;6.15;100.00;102433.94;5026745;28;19929;-72
2022/10/09 04:44:43;;;;;;;;;;;;;;;6.15;100.00;102433.94;5030667;28;19935;-72
2022/10/09 04:47:09;;;;;;;;;;;;;;;6.17;100.00;102436.59;5029900;28;19947;-71
2022/10/09 04:49:34;;;;;;;;;;;;;;;6.17;100.00;102433.97;5034345;28;20005;-73
2022/10/09 04:51:59;;;;;;;;;;;;;;;6.17;100.00;102433.97;5027550;28;20036;-71
2022/10/09 04:54:25;;;;;;;;;;;;;;;6.16;100.00;102435.69;5031378;28;19939;-72
2022/10/09 04:56:50;;;;;;;;;;;;;;;6.15;100.00;102438.34;5031567;28;20023;-72
2022/10/09 04:59:16;;;;;;;;;;;;;;;6.13;100.00;102434.84;5030353;28;19935;-72
2022/10/09 05:01:41;;;;;;;;;;;;;;;6.11;100.00;102437.47;5032016;28;19944;-72
2022/10/09 05:04:07;;;;;;;;;;;;;;;6.09;100.00;102440.09;5051008;28;19924;-72
2022/10/09 05:06:34;;;;;;;;;;;;;;;6.08;100.00;102432.22;5026151;28;19991;-71
2022/10/09 05:09:00;;;;;;;;;;;;;;;6.07;100.00;102425.22;5030684;28;20437;-72
2022/10/09 05:11:27;;;;;;;;;;;;;;;6.05;100.00;102427.81;5031343;28;20555;-71
2022/10/09 05:13:54;;;;;;;;;;;;;;;6.03;100.00;102429.59;5030498;28;19925;-71
2022/10/09 05:16:20;;;;;;;;;;;;;;;5.99;100.00;102430.44;5027468;28;20388;-71
2022/10/09 05:18:49;;;;;;;;;;;;;;;5.95;100.00;102426.06;5029462;28;19935;-71
2022/10/09 05:21:14;;;;;;;;;;;;;;;5.91;100.00;102424.31;5049502;28;19932;-72
2022/10/09 05:23:40;;;;;;;;;;;;;;;5.89;100.00;102431.31;5026578;28;19929;-71
2022/10/09 05:26:10;;;;;;;;;;;;;;;5.85;100.00;102425.19;5016883;28;19925;-71
2022/10/09 05:28:36;;;;;;;;;;;;;;;5.84;100.00;102419.06;5026343;28;19933;-70
2022/10/09 05:31:02;;;;;;;;;;;;;;;5.81;100.00;102424.31;5048575;28;19924;-71
2022/10/09 05:33:28;;;;;;;;;;;;;;;5.78;100.00;102424.31;5052062;28;20209;-72
2022/10/09 05:35:54;;;;;;;;;;;;;;;5.77;100.00;102424.31;5033812;28;20292;-71
2022/10/09 05:38:20;;;;;;;;;;;;;;;5.76;100.00;102427.81;5028969;28;19925;-71
2022/10/09 05:40:56;;;;;;;;;;;;;;;5.73;100.00;102435.69;5035018;28;19933;-71
2022/10/09 05:43:22;;;;;;;;;;;;;;;5.70;100.00;102433.94;5035357;28;19933;-72
2022/10/09 05:45:47;;;;;;;;;;;;;;;5.68;100.00;102438.34;5030920;28;20280;-72
2022/10/09 05:48:13;;;;;;;;;;;;;;;5.68;100.00;102439.19;5030757;28;19935;-72
2022/10/09 05:50:38;;;;;;;;;;;;;;;5.67;100.00;102436.59;5034937;28;19929;-72
2022/10/09 05:53:03;;;;;;;;;;;;;;;5.65;100.00;102428.69;5042839;28;19929;-72
2022/10/09 05:55:32;;;;;;;;;;;;;;;5.64;100.00;102436.56;5034499;28;20234;-72
2022/10/09 05:57:57;;;;;;;;;;;;;;;5.65;100.00;102440.94;5035270;28;19947;-71
2022/10/09 06:00:23;;;;;;;;;;;;;;;5.63;100.00;102435.72;5033836;28;20011;-71
2022/10/09 06:02:50;;;;;;;;;;;;;;;5.63;100.00;102437.44;5035711;28;19932;-72
2022/10/09 06:05:16;;;;;;;;;;;;;;;5.63;100.00;102434.81;5034256;28;19978;-72
2022/10/09 06:07:41;;;;;;;;;;;;;;;5.64;100.00;102432.19;5037745;28;19929;-72
2022/10/09 06:10:07;;;;;;;;;;;;;;;5.62;100.00;102435.69;5036906;28;20345;-71
2022/10/09 06:12:32;;;;;;;;;;;;;;;5.63;100.00;102434.81;5035481;28;20276;-72
2022/10/09 06:14:57;;;;;;;;;;;;;;;5.66;100.00;102432.22;5052241;28;19932;-72
2022/10/09 06:17:23;;;;;;;;;;;;;;;5.69;100.00;102434.81;5014196;28;20023;-71
2022/10/09 06:19:51;;;;;;;;;;;;;;;5.70;100.00;102437.47;5033859;28;19932;-71
2022/10/09 06:22:16;;;;;;;;;;;;;;;5.72;100.00;102440.06;5051391;28;19933;-71
2022/10/09 06:24:42;;;;;;;;;;;;;;;5.74;100.00;102433.09;5050982;28;19959;-73
2022/10/09 06:27:07;;;;;;;;;;;;;;;5.75;100.00;102428.69;5033162;28;19933;-72
2022/10/09 06:29:33;;;;;;;;;;;;;;;5.77;100.00;102438.31;5033931;28;19925;-72
2022/10/09 06:31:58;;;;;;;;;;;;;;;5.78;100.00;102434.81;5051968;28;20390;-72
2022/10/09 06:34:24;;;;;;;;;;;;;;;5.80;100.00;102433.09;5031402;28;19958;-72
2022/10/09 06:36:49;;;;;;;;;;;;;;;5.82;100.00;102439.22;5032755;28;19933;-72
2022/10/09 06:39:17;;;;;;;;;;;;;;;5.82;100.00;102433.94;5035485;28;19936;-72
2022/10/09 06:41:45;;;;;;;;;;;;;;;5.83;100.00;102440.97;5034100;28;19979;-71
2022/10/09 06:44:11;;;;;;;;;;;;;;;5.84;100.00;102434.81;5033540;28;19933;-72
2022/10/09 06:46:37;;;;;;;;;;;;;;;5.85;100.00;102431.31;5027894;28;19960;-72
2022/10/09 06:49:03;;;;;;;;;;;;;;;5.89;100.00;102436.59;5028522;28;19936;-72
2022/10/09 06:51:32;;;;;;;;;;;;;;;5.92;100.00;102437.47;5033300;28;19982;-72
2022/10/09 06:53:58;;;;;;;;;;;;;;;5.95;100.00;102433.97;5028485;28;19929;-72
2022/10/09 06:56:24;;;;;;;;;;;;;;;5.98;100.00;102441.81;5028455;28;19951;-72
2022/10/09 06:58:55;;;;;;;;;;;;;;;6.00;100.00;102437.47;5028497;28;19924;-72
2022/10/09 07:01:25;;;;;;;;;;;;;;;6.04;100.00;102430.47;5028264;28;19986;-71
2022/10/09 07:03:52;;;;;;;;;;;;;;;6.07;100.00;102435.72;5051389;28;20269;-71
2022/10/09 07:06:21;;;;;;;;;;;;;;;6.13;100.00;102434.84;5050799;28;20017;-72
2022/10/09 07:08:50;;;;;;;;;;;;;;;6.18;100.00;102433.06;5033897;28;19932;-72
2022/10/09 07:11:16;;;;;;;;;;;;;;;6.24;100.00;102441.84;5050573;28;20380;-72
2022/10/09 07:13:42;;;;;;;;;;;;;;;6.30;100.00;102440.06;5027796;28;19935;-72
2022/10/09 07:16:08;;;;;;;;;;;;;;;6.36;100.00;102443.56;5033608;28;19925;-72
2022/10/09 07:18:34;;;;;;;;;;;;;;;6.44;100.00;102451.47;5028866;28;19943;-72
2022/10/09 07:21:00;;;;;;;;;;;;;;;6.52;100.00;102446.16;5018798;28;20387;-72
2022/10/09 07:23:26;;;;;;;;;;;;;;;6.61;100.00;102442.63;5032609;28;20469;-72
2022/10/09 07:25:52;;;;;;;;;;;;;;;6.69;100.00;102450.50;5032709;28;19940;-71
2022/10/09 07:28:17;;;;;;;;;;;;;;;6.77;100.00;102448.72;5033622;28;19933;-71
2022/10/09 07:30:45;;;;;;;;;;;;;;;6.85;100.00;102451.31;5032759;28;19929;-71
2022/10/09 07:33:13;;;;;;;;;;;;;;;6.95;100.00;102446.88;5028601;28;19943;-73
2022/10/09 07:35:39;;;;;;;;;;;;;;;7.03;100.00;102445.09;5027344;28;19971;-71
2022/10/09 07:38:04;;;;;;;;;;;;;;;7.10;100.00;102452.09;5030814;28;20019;-72
2022/10/09 07:40:32;;;;;;;;;;;;;;;7.18;100.00;102458.19;5033626;28;20383;-72
2022/10/09 07:42:57;;;;;;;;;;;;;;;7.26;100.00;102462.53;5027473;28;19932;-72
2022/10/09 07:45:23;;;;;;;;;;;;;;;7.31;100.00;102460.75;5031089;28;19925;-72
2022/10/09 07:47:50;;;;;;;;;;;;;;;7.38;100.00;102454.56;5012067;28;20062;-72
2022/10/09 07:50:16;;;;;;;;;;;;;;;7.46;100.00;102459.78;5032406;28;20019;-72
2022/10/09 07:52:41;;;;;;;;;;;;;;;7.51;100.00;102460.63;5031207;28;20367;-72
2022/10/09 07:55:07;;;;;;;;;;;;;;;7.58;100.00;102458.84;5026210;28;19994;-72
2022/10/09 07:57:32;;;;;;;;;;;;;;;7.63;100.00;102459.66;5018715;28;19997;-72
2022/10/09 07:59:58;;;;;;;;;;;;;;;7.69;100.00;102456.13;5026855;28;19936;-72
2022/10/09 08:02:23;;;;;;;;;;;;;;;7.75;100.00;102456.94;5018542;28;19964;-73
2022/10/09 08:05:06;;;;;;;;;;;;;;;7.83;100.00;102463.91;5017392;28;19929;-72
2022/10/09 08:07:32;;;;;;;;;;;;;;;7.91;100.00;102455.94;5032351;28;19983;-72
2022/10/09 08:09:57;;;;;;;;;;;;;;;7.99;100.00;102460.28;5028475;28;20023;-71
2022/10/09 08:12:22;;;;;;;;;;;;;;;8.07;100.00;102454.91;5031721;28;19936;-71
2022/10/09 08:14:48;;;;;;;;;;;;;;;8.15;100.00;102454.84;5033220;28;19980;-72
2022/10/09 08:17:13;;;;;;;;;;;;;;;8.24;100.00;102459.16;5032646;28;19939;-71
2022/10/09 08:19:39;;;;;;;;;;;;;;;8.31;100.00;102450.31;5032179;28;19998;-71
2022/10/09 08:22:07;;;;;;;;;;;;;;;8.40;100.00;102459.88;5033016;28;20364;-71
2022/10/09 08:24:32;;;;;;;;;;;;;;;8.48;100.00;102452.75;5031216;28;20035;-70
2022/10/09 08:26:57;;;;;;;;;;;;;;;8.58;100.00;102463.25;5033509;28;19958;-71
2022/10/09 08:29:25;;;;;;;;;;;;;;;8.65;100.00;102455.25;5033627;28;19933;-72
2022/10/09 08:31:51;;;;;;;;;;;;;;;8.72;100.00;102452.53;5032585;28;19933;-72
2022/10/09 08:34:16;;;;;;;;;;;;;;;8.81;100.00;102450.66;5033007;28;20018;-72
2022/10/09 08:36:41;;;;;;;;;;;;;;;8.89;100.00;102447.03;5027996;28;19932;-72
2022/10/09 08:39:07;;;;;;;;;;;;;;;8.95;100.00;102446.97;5032268;28;19939;-73
2022/10/09 08:42:00;;;;;;;;;;;;;;;9.01;100.00;102454.81;5025533;28;19933;-71
2022/10/09 08:44:33;;;;;;;;;;;;;;;9.10;100.00;102446.75;5030883;28;19964;-71
2022/10/09 08:47:11;;;;;;;;;;;;;;;9.20;100.00;102449.25;5050282;28;19951;-72
2022/10/09 08:49:43;;;;;;;;;;;;;;;9.26;100.00;102441.25;5019163;28;19998;-72
2022/10/09 08:52:19;;;;;;;;;;;;;;;9.35;100.00;102443.78;5026440;28;19932;-72
2022/10/09 08:54:44;;;;;;;;;;;;;;;9.44;100.00;102433.94;5030766;28;19929;-73
2022/10/09 08:57:12;;;;;;;;;;;;;;;9.50;100.00;102447.09;5047306;28;20492;-72
2022/10/09 08:59:38;;;;;;;;;;;;;;;9.59;100.00;102438.13;5033526;28;20358;-73
2022/10/09 09:02:17;;;;;;;;;;;;;;;9.65;100.00;102438.03;5031103;28;19932;-70
2022/10/09 09:04:49;;;;;;;;;;;;;;;9.73;100.00;102437.91;5014996;28;19931;-72
2022/10/09 09:07:17;;;;;;;;;;;;;;;9.82;100.00;102435.13;5048396;28;19935;-72
2022/10/09 09:09:49;;;;;;;;;;;;;;;9.92;100.00;102436.69;5034685;28;19925;-72
2022/10/09 09:12:23;;;;;;;;;;;;;;;10.01;100.00;102432.13;5034940;28;19930;-72
2022/10/09 09:15:08;;;;;;;;;;;;;;;10.12;100.00;102435.47;5034830;28;19924;-73
2022/10/09 09:17:39;;;;;;;;;;;;;;;10.22;100.00;102432.66;5034872;28;22069;-72
2022/10/09 09:20:13;;;;;;;;;;;;;;;10.29;100.00;102431.63;5034496;28;20020;-72
2022/10/09 09:22:39;;;;;;;;;;;;;;;10.38;100.00;102434.13;5030384;28;19944;-72
2022/10/09 09:25:37;;;;;;;;;;;;;;;10.48;100.00;102431.31;5030102;28;21382;-72
2022/10/09 09:28:23;;;;;;;;;;;;;;;10.56;100.00;102424.09;5020055;28;19932;-72
2022/10/09 09:30:54;;;;;;;;;;;;;;;10.64;100.00;102427.47;5050231;28;20306;-72
2022/10/09 09:33:22;;;;;;;;;;;;;;;10.71;100.00;102428.19;5029661;28;20426;-72
2022/10/09 09:35:49;;;;;;;;;;;;;;;10.78;100.00;102424.53;5014378;28;20572;-72
2022/10/09 09:38:15;;;;;;;;;;;;;;;10.83;100.00;102420.00;4996277;28;19929;-72
2022/10/09 09:40:40;;;;;;;;;;;;;;;10.89;100.00;102419.00;5018805;28;20146;-72
2022/10/09 09:43:32;;;;;;;;;;;;;;;10.94;100.00;102419.78;5029142;28;19968;-72
2022/10/09 09:45:58;;;;;;;;;;;;;;;11.00;100.00;102422.28;5034295;28;20020;-72
2022/10/09 09:48:30;;;;;;;;;;;;;;;11.06;100.00;102418.63;5052055;28;20015;-70
2022/10/09 09:50:57;;;;;;;;;;;;;;;11.11;100.00;102418.53;5035007;28;20276;-72
2022/10/09 09:53:23;;;;;;;;;;;;;;;11.19;100.00;102413.94;5030237;28;20277;-71
2022/10/09 09:55:52;;;;;;;;;;;;;;;11.27;100.00;102411.06;5034986;28;19932;-71
2022/10/09 09:58:17;;;;;;;;;;;;;;;11.35;100.00;102410.91;5013965;28;20062;-72
2022/10/09 10:00:56;;;;;;;;;;;;;;;11.40;100.00;102415.19;5051423;28;19925;-71
2022/10/09 10:03:22;;;;;;;;;;;;;;;11.45;100.00;102403.59;5050995;28;19929;-71
2022/10/09 10:05:48;;;;;;;;;;;;;;;11.47;100.00;102405.31;5051305;28;20001;-71
2022/10/09 10:08:14;;;;;;;;;;;;;;;11.57;100.00;102402.44;5032413;28;19933;-71
2022/10/09 10:10:43;;;;;;;;;;;;;;;11.61;100.00;102397.00;5028396;28;20445;-70
2022/10/09 10:13:16;;;;;;;;;;;;;;;11.64;100.00;102398.72;5031977;28;19928;-71
2022/10/09 10:15:49;;;;;;;;;;;;;;;11.68;100.00;102401.25;5033379;28;19929;-71
2022/10/09 10:18:15;;;;;;;;;;;;;;;11.73;100.00;102394.97;5048993;28;20210;-72
2022/10/09 10:20:42;;;;;;;;;;;;;;;11.76;100.00;102390.44;5036027;28;20442;-72
2022/10/09 10:23:21;;;;;;;;;;;;;;;11.80;100.00;102389.47;5023249;28;19951;-71
2022/10/09 10:25:49;;;;;;;;;;;;;;;11.85;100.00;102388.47;5028000;28;19929;-72
2022/10/09 10:28:16;;;;;;;;;;;;;;;11.87;100.00;102379.53;5050303;28;20288;-71
2022/10/09 10:30:42;;;;;;;;;;;;;;;11.89;100.00;102377.75;5033316;28;19929;-71
2022/10/09 10:33:13;;;;;;;;;;;;;;;11.90;100.00;102374.19;5053171;28;19967;-71
2022/10/09 10:35:39;;;;;;;;;;;;;;;11.92;100.00;102374.09;5015506;28;20002;-71
2022/10/09 10:38:17;;;;;;;;;;;;;;;11.94;100.00;102372.31;5034095;28;20338;-71
2022/10/09 10:40:57;;;;;;;;;;;;;;;11.98;100.00;102376.59;5027814;28;19924;-71
2022/10/09 10:43:32;;;;;;;;;;;;;;;12.01;100.00;102367.69;5027804;28;20386;-71
2022/10/09 10:46:01;;;;;;;;;;;;;;;12.04;100.00;102368.50;5027890;28;19972;-71
2022/10/09 10:48:27;;;;;;;;;;;;;;;12.07;100.00;102354.28;5033360;28;20620;-71
2022/10/09 10:50:55;;;;;;;;;;;;;;;12.11;100.00;102355.97;5027520;28;20031;-72
2022/10/09 10:53:23;;;;;;;;;;;;;;;12.18;100.00;102349.56;5007587;28;20360;-72
2022/10/09 10:55:49;;;;;;;;;;;;;;;12.21;100.00;102349.47;5031231;28;19925;-71
2022/10/09 10:58:17;;;;;;;;;;;;;;;12.27;100.00;102340.47;5032928;28;19966;-72
2022/10/09 11:00:45;;;;;;;;;;;;;;;12.30;100.00;102343.03;5030611;28;19931;-72
2022/10/09 11:03:14;;;;;;;;;;;;;;;12.33;100.00;102334.94;5027916;28;19932;-71
2022/10/09 11:05:39;;;;;;;;;;;;;;;12.39;100.00;102336.56;5032870;28;20516;-71
2022/10/09 11:08:07;;;;;;;;;;;;;;;12.43;100.00;102326.72;5033203;28;19929;-72
2022/10/09 11:10:45;;;;;;;;;;;;;;;12.50;100.00;102325.63;5033383;28;19929;-72
2022/10/09 11:13:14;;;;;;;;;;;;;;;12.55;100.00;102326.38;5036454;28;19928;-71
2022/10/09 11:15:51;;;;;;;;;;;;;;;12.58;100.00;102318.28;5019503;28;19925;-72
2022/10/09 11:18:35;;;;;;;;;;;;;;;12.62;100.00;102306.66;5032886;28;19935;-72
2022/10/09 11:21:07;;;;;;;;;;;;;;;12.66;100.00;102304.78;5032664;28;19925;-71
2022/10/09 11:23:33;;;;;;;;;;;;;;;12.69;100.00;102307.31;5033123;28;19932;-71
2022/10/09 11:26:03;;;;;;;;;;;;;;;12.72;100.00;102309.03;5032796;28;19990;-71
2022/10/09 11:28:32;;;;;;;;;;;;;;;12.73;100.00;102297.47;5027556;28;19971;-71
2022/10/09 11:31:08;;;;;;;;;;;;;;;12.73;100.00;102289.50;5027834;28;19928;-72
2022/10/09 11:33:35;;;;;;;;;;;;;;;12.72;100.00;102282.44;5018503;28;19932;-72
2022/10/09 11:36:02;;;;;;;;;;;;;;;12.73;100.00;102287.72;5049416;28;19929;-71
2022/10/09 11:38:32;;;;;;;;;;;;;;;12.75;100.00;102288.53;5027651;28;20649;-72
2022/10/09 11:40:58;;;;;;;;;;;;;;;12.77;100.00;102280.53;5033204;28;19924;-70
2022/10/09 11:43:23;;;;;;;;;;;;;;;12.82;100.00;102280.38;5032088;28;20068;-71
2022/10/09 11:45:54;;;;;;;;;;;;;;;12.86;100.00;102272.25;5027057;28;19924;-71
2022/10/09 11:48:25;;;;;;;;;;;;;;;12.90;100.00;102265.94;5031516;28;19936;-71
2022/10/09 11:50:52;;;;;;;;;;;;;;;12.94;100.00;102268.47;5028470;28;19928;-71
2022/10/09 11:53:19;;;;;;;;;;;;;;;12.97;99.95;102257.75;5011830;28;20460;-72
2022/10/09 11:55:46;;;;;;;;;;;;;;;13.03;97.72;102257.56;5025906;28;19932;-71
2022/10/09 11:58:14;;;;;;;;;;;;;;;13.07;97.33;102255.66;5031989;28;20348;-71
2022/10/09 12:00:41;;;;;;;;;;;;;;;13.11;96.79;102257.28;5031440;28;19929;-71
2022/10/09 12:03:07;;;;;;;;;;;;;;;13.15;95.27;102251.81;5031759;28;20337;-71
2022/10/09 12:05:40;;;;;;;;;;;;;;;13.21;94.24;102240.09;5010485;28;19929;-71
2022/10/09 12:08:26;;;;;;;;;;;;;;;13.26;94.38;102242.59;5030934;28;19951;-71
2022/10/09 12:10:52;;;;;;;;;;;;;;;13.31;94.60;102230.00;5031122;28;19974;-71
2022/10/09 12:13:39;;;;;;;;;;;;;;;13.36;94.68;102219.22;5025801;28;20056;-71
2022/10/09 12:16:06;;;;;;;;;;;;;;;13.38;94.51;102223.56;5048375;28;19935;-71
2022/10/09 12:18:35;;;;;;;;;;;;;;;13.38;94.10;102220.00;5048734;28;19929;-71
2022/10/09 12:21:02;;;;;;;;;;;;;;;13.38;93.98;102220.00;5025699;28;20016;-72
2022/10/09 12:23:28;;;;;;;;;;;;;;;13.42;93.64;102211.88;5018102;28;20246;-71
2022/10/09 12:25:54;;;;;;;;;;;;;;;13.43;92.81;102207.44;5008950;28;19929;-72
2022/10/09 12:28:23;;;;;;;;;;;;;;;13.46;91.23;102211.81;5014152;28;19925;-70
2022/10/09 12:30:48;;;;;;;;;;;;;;;13.46;89.74;102201.16;5031129;28;19925;-72
2022/10/09 12:33:13;;;;;;;;;;;;;;;13.44;89.91;102194.06;5026241;28;19932;-72
2022/10/09 12:35:40;;;;;;;;;;;;;;;13.47;92.17;102184.28;5031045;28;20007;-73
2022/10/09 12:38:35;;;;;;;;;;;;;;;13.50;91.28;102189.50;5025216;28;20452;-69